createdAt,value
2018-08-11T00:00:35.656Z,16.95
2018-08-11T00:03:04.225Z,17.03
2018-08-11T00:05:32.724Z,17.02
2018-08-11T00:08:01.282Z,17.00
2018-08-11T00:10:29.745Z,16.96
2018-08-11T00:12:58.277Z,17.00
2018-08-11T00:15:26.816Z,17.00
2018-08-11T00:17:55.261Z,16.99
2018-08-11T00:20:25.511Z,17.11
2018-08-11T00:22:54.009Z,17.13
2018-08-11T00:25:22.509Z,17.14
2018-08-11T00:27:51.062Z,17.13
2018-08-11T00:30:20.822Z,17.15
2018-08-11T00:32:49.360Z,17.08
2018-08-11T00:35:18.229Z,16.97
2018-08-11T00:37:46.988Z,16.94
2018-08-11T00:40:19.193Z,16.89
2018-08-11T00:42:48.770Z,16.90
2018-08-11T00:45:18.577Z,16.92
2018-08-11T00:47:47.178Z,16.98
2018-08-11T00:50:23.072Z,17.07
2018-08-11T00:52:51.545Z,17.10
2018-08-11T00:55:20.053Z,17.07
2018-08-11T00:57:48.673Z,17.10
2018-08-11T01:00:19.386Z,17.11
2018-08-11T01:02:48.077Z,17.16
2018-08-11T01:05:20.110Z,17.22
2018-08-11T01:07:49.137Z,17.21
2018-08-11T01:10:18.341Z,17.26
2018-08-11T01:12:47.332Z,17.30
2018-08-11T01:15:20.018Z,17.33
2018-08-11T01:17:49.313Z,17.42
2018-08-11T01:20:18.468Z,17.41
2018-08-11T01:22:47.705Z,17.40
2018-08-11T01:25:16.563Z,17.36
2018-08-11T01:27:45.184Z,17.33
2018-08-11T01:30:16.516Z,17.33
2018-08-11T01:32:45.074Z,17.41
2018-08-11T01:35:13.677Z,17.38
2018-08-11T01:37:43.207Z,17.40
2018-08-11T01:40:12.944Z,17.36
2018-08-11T01:42:42.491Z,17.31
2018-08-11T01:45:11.901Z,17.44
2018-08-11T01:47:40.813Z,17.38
2018-08-11T01:50:10.984Z,17.47
2018-08-11T01:52:40.645Z,17.47
2018-08-11T01:55:10.106Z,17.43
2018-08-11T01:57:38.557Z,17.32
2018-08-11T02:00:09.045Z,17.29
2018-08-11T02:02:37.852Z,17.29
2018-08-11T02:05:06.748Z,17.23
2018-08-11T02:07:35.333Z,17.25
2018-08-11T02:10:04.921Z,17.22
2018-08-11T02:12:33.451Z,17.15
2018-08-11T02:15:01.911Z,17.14
2018-08-11T02:17:30.580Z,17.08
2018-08-11T02:19:59.104Z,16.98
2018-08-11T02:22:27.577Z,16.88
2018-08-11T02:24:57.101Z,16.83
2018-08-11T02:27:25.606Z,16.80
2018-08-11T02:29:54.168Z,16.75
2018-08-11T02:32:22.611Z,16.73
2018-08-11T02:34:51.118Z,16.65
2018-08-11T02:37:19.653Z,16.62
2018-08-11T02:39:48.161Z,16.52
2018-08-11T02:42:16.822Z,16.50
2018-08-11T02:44:45.354Z,16.42
2018-08-11T02:47:13.837Z,16.28
2018-08-11T02:49:42.313Z,16.14
2018-08-11T02:52:10.758Z,15.98
2018-08-11T02:54:39.261Z,15.91
2018-08-11T02:57:07.665Z,15.88
2018-08-11T02:59:36.172Z,15.93
2018-08-11T03:02:04.657Z,15.91
2018-08-11T03:04:33.065Z,15.92
2018-08-11T03:07:01.558Z,15.83
2018-08-11T03:09:30.102Z,15.76
2018-08-11T03:11:58.634Z,15.68
2018-08-11T03:14:27.159Z,15.61
2018-08-11T03:16:55.570Z,15.57
2018-08-11T03:19:24.148Z,15.50
2018-08-11T03:21:52.662Z,15.41
2018-08-11T03:24:21.087Z,15.36
2018-08-11T03:26:49.501Z,15.34
2018-08-11T03:29:18.303Z,15.31
2018-08-11T03:31:46.758Z,15.27
2018-08-11T03:34:15.674Z,15.27
2018-08-11T03:36:44.166Z,15.23
2018-08-11T03:39:13.387Z,15.22
2018-08-11T03:41:42.318Z,15.13
2018-08-11T03:44:11.240Z,15.09
2018-08-11T03:46:39.699Z,15.07
2018-08-11T03:49:08.253Z,15.09
2018-08-11T03:51:36.693Z,14.97
2018-08-11T03:54:05.245Z,14.84
2018-08-11T03:56:33.713Z,14.77
2018-08-11T03:59:02.149Z,14.65
2018-08-11T04:01:30.596Z,14.65
2018-08-11T04:03:59.099Z,14.78
2018-08-11T04:06:27.593Z,14.77
2018-08-11T04:08:56.050Z,14.86
2018-08-11T04:11:24.535Z,14.82
2018-08-11T04:13:53.011Z,14.74
2018-08-11T04:16:21.521Z,14.75
2018-08-11T04:18:49.948Z,14.80
2018-08-11T04:21:18.727Z,14.80
2018-08-11T04:23:47.133Z,14.83
2018-08-11T04:26:15.794Z,14.78
2018-08-11T04:28:44.233Z,14.71
2018-08-11T04:31:12.765Z,14.65
2018-08-11T04:33:41.161Z,14.62
2018-08-11T04:36:10.030Z,14.62
2018-08-11T04:38:38.418Z,14.72
2018-08-11T04:41:06.989Z,14.69
2018-08-11T04:43:35.373Z,14.72
2018-08-11T04:46:03.861Z,14.75
2018-08-11T04:48:32.480Z,14.77
2018-08-11T04:51:00.969Z,14.83
2018-08-11T04:53:29.441Z,14.83
2018-08-11T04:55:57.874Z,14.82
2018-08-11T04:58:26.274Z,14.88
2018-08-11T05:00:54.810Z,14.96
2018-08-11T05:03:23.239Z,14.99
2018-08-11T05:05:51.822Z,14.99
2018-08-11T05:08:20.578Z,15.00
2018-08-11T05:10:49.017Z,15.14
2018-08-11T05:13:17.925Z,15.24
2018-08-11T05:15:46.393Z,15.33
2018-08-11T05:18:14.929Z,15.35
2018-08-11T05:20:43.409Z,15.38
2018-08-11T05:23:11.813Z,15.45
2018-08-11T05:25:40.305Z,15.56
2018-08-11T05:28:09.021Z,15.70
2018-08-11T05:30:37.457Z,15.81
2018-08-11T05:33:06.835Z,15.91
2018-08-11T05:35:35.254Z,16.03
2018-08-11T05:38:03.801Z,16.11
2018-08-11T05:40:32.233Z,16.20
2018-08-11T05:43:00.721Z,16.32
2018-08-11T05:45:29.177Z,16.34
2018-08-11T05:47:57.690Z,16.34
2018-08-11T05:50:26.142Z,16.36
2018-08-11T05:52:54.953Z,16.37
2018-08-11T05:55:23.412Z,16.43
2018-08-11T05:57:51.941Z,16.49
2018-08-11T06:00:20.418Z,16.59
2018-08-11T06:02:48.885Z,16.69
2018-08-11T06:05:17.597Z,16.74
2018-08-11T06:07:46.097Z,16.78
2018-08-11T06:10:14.541Z,16.84
2018-08-11T06:12:43.019Z,16.89
2018-08-11T06:15:11.749Z,16.96
2018-08-11T06:17:40.228Z,17.01
2018-08-11T06:20:09.538Z,17.06
2018-08-11T06:22:38.149Z,17.15
2018-08-11T06:25:08.652Z,17.22
2018-08-11T06:27:37.077Z,17.29
2018-08-11T06:30:07.070Z,17.38
2018-08-11T06:32:35.592Z,17.50
2018-08-11T06:35:04.317Z,17.51
2018-08-11T06:37:32.991Z,17.51
2018-08-11T06:40:01.415Z,17.59
2018-08-11T06:42:29.926Z,17.72
2018-08-11T06:44:58.443Z,17.84
2018-08-11T06:47:27.042Z,17.91
2018-08-11T06:49:55.535Z,18.05
2018-08-11T06:52:24.061Z,18.14
2018-08-11T06:54:52.686Z,18.27
2018-08-11T06:57:21.106Z,18.39
2018-08-11T06:59:49.574Z,18.56
2018-08-11T07:02:18.653Z,18.71
2018-08-11T07:04:47.146Z,18.87
2018-08-11T07:07:15.799Z,19.05
2018-08-11T07:09:44.201Z,19.18
2018-08-11T07:12:12.961Z,19.26
2018-08-11T07:14:41.392Z,19.38
2018-08-11T07:19:47.934Z,19.61
2018-08-11T07:22:17.757Z,19.73
2018-08-11T07:24:46.212Z,19.86
2018-08-11T07:27:14.871Z,19.91
2018-08-11T07:29:43.679Z,20.01
2018-08-11T07:32:12.911Z,20.10
2018-08-11T07:34:41.332Z,20.12
2018-08-11T07:37:09.772Z,20.12
2018-08-11T07:39:38.533Z,20.26
2018-08-11T07:42:07.277Z,20.51
2018-08-11T07:44:35.716Z,20.76
2018-08-11T07:47:04.521Z,20.87
2018-08-11T07:49:33.016Z,21.04
2018-08-11T07:52:01.482Z,21.10
2018-08-11T07:54:30.046Z,21.21
2018-08-11T07:56:58.529Z,21.42
2018-08-11T07:59:27.082Z,21.53
2018-08-11T08:01:55.617Z,21.63
2018-08-11T08:04:24.187Z,21.67
2018-08-11T08:06:52.651Z,21.85
2018-08-11T08:09:21.381Z,22.03
2018-08-11T08:11:49.818Z,22.39
2018-08-11T08:14:19.129Z,22.66
2018-08-11T08:16:47.514Z,22.71
2018-08-11T08:19:16.420Z,23.03
2018-08-11T08:21:44.870Z,23.24
2018-08-11T08:24:13.429Z,23.34
2018-08-11T08:26:42.017Z,23.30
2018-08-11T08:29:10.542Z,23.40
2018-08-11T08:31:39.017Z,23.73
2018-08-11T08:34:07.507Z,23.90
2018-08-11T08:36:35.954Z,23.64
2018-08-11T08:39:07.953Z,23.59
2018-08-11T08:41:36.585Z,23.45
2018-08-11T08:44:05.136Z,23.43
2018-08-11T08:46:33.701Z,23.56
2018-08-11T08:49:02.183Z,23.76
2018-08-11T08:51:30.661Z,23.42
2018-08-11T08:53:59.145Z,23.50
2018-08-11T08:56:27.841Z,23.39
2018-08-11T08:58:56.336Z,23.15
2018-08-11T09:01:24.966Z,23.14
2018-08-11T09:03:53.450Z,23.34
2018-08-11T09:06:21.957Z,23.54
2018-08-11T09:08:50.446Z,23.44
2018-08-11T09:11:19.122Z,23.68
2018-08-11T09:13:47.582Z,23.61
2018-08-11T09:16:16.769Z,24.03
2018-08-11T09:18:45.165Z,24.31
2018-08-11T09:21:13.669Z,24.27
2018-08-11T09:23:42.073Z,24.25
2018-08-11T09:26:11.058Z,24.06
2018-08-11T09:28:39.461Z,24.40
2018-08-11T09:31:08.019Z,24.42
2018-08-11T09:33:36.457Z,24.43
2018-08-11T09:36:05.029Z,24.26
2018-08-11T09:38:33.608Z,24.62
2018-08-11T09:41:02.138Z,25.00
2018-08-11T09:43:30.686Z,25.42
2018-08-11T09:45:59.178Z,25.19
2018-08-11T09:48:27.652Z,25.47
2018-08-11T09:50:56.186Z,25.96
2018-08-11T09:53:24.641Z,26.41
2018-08-11T09:55:53.137Z,27.09
2018-08-11T09:58:21.542Z,27.70
2018-08-11T10:00:54.163Z,27.86
2018-08-11T10:03:22.833Z,28.71
2018-08-11T10:05:51.502Z,28.86
2018-08-11T10:08:20.119Z,28.08
2018-08-11T10:10:48.639Z,28.64
2018-08-11T10:13:18.169Z,28.88
2018-08-11T10:15:46.662Z,29.39
2018-08-11T10:18:15.090Z,29.99
2018-08-11T10:20:43.577Z,31.10
2018-08-11T10:23:12.093Z,31.53
2018-08-11T10:25:40.629Z,32.43
2018-08-11T10:28:09.121Z,32.63
2018-08-11T10:30:37.594Z,32.65
2018-08-11T10:33:06.166Z,31.39
2018-08-11T10:35:34.641Z,31.33
2018-08-11T10:38:03.157Z,29.93
2018-08-11T10:42:54.268Z,29.03
2018-08-11T10:45:22.740Z,29.74
2018-08-11T10:47:51.215Z,31.02
2018-08-11T10:50:19.765Z,31.56
2018-08-11T10:52:48.194Z,32.45
2018-08-11T10:55:16.849Z,32.50
2018-08-11T10:57:45.461Z,32.37
2018-08-11T11:00:14.049Z,32.73
2018-08-11T11:02:42.509Z,32.91
2018-08-11T11:05:11.111Z,33.19
2018-08-11T11:07:39.753Z,33.63
2018-08-11T11:10:08.369Z,33.44
2018-08-11T11:12:36.905Z,33.89
2018-08-11T11:15:06.712Z,33.22
2018-08-11T11:17:35.243Z,33.51
2018-08-11T11:20:03.690Z,34.52
2018-08-11T11:22:32.133Z,34.07
2018-08-11T11:25:00.564Z,31.24
2018-08-11T11:27:29.077Z,32.36
2018-08-11T11:29:57.587Z,33.64
2018-08-11T11:32:26.008Z,33.85
2018-08-11T11:34:54.708Z,34.77
2018-08-11T11:37:23.310Z,35.01
2018-08-11T11:39:51.692Z,35.38
2018-08-11T11:42:20.221Z,35.41
2018-08-11T11:44:48.744Z,35.81
2018-08-11T11:47:17.884Z,36.90
2018-08-11T11:49:46.357Z,35.45
2018-08-11T11:52:14.834Z,33.46
2018-08-11T11:54:43.294Z,35.13
2018-08-11T11:57:11.761Z,36.56
2018-08-11T11:59:40.257Z,36.60
2018-08-11T12:02:08.923Z,35.89
2018-08-11T12:04:37.324Z,35.54
2018-08-11T12:07:06.388Z,37.34
2018-08-11T12:09:34.894Z,34.42
2018-08-11T12:12:03.417Z,36.39
2018-08-11T12:14:31.886Z,37.20
2018-08-11T12:17:00.377Z,38.39
2018-08-11T12:19:28.902Z,39.59
2018-08-11T12:21:57.329Z,38.88
2018-08-11T12:24:25.789Z,36.94
2018-08-11T12:26:54.249Z,37.04
2018-08-11T12:29:22.757Z,37.89
2018-08-11T12:31:51.201Z,38.92
2018-08-11T12:34:19.750Z,39.12
2018-08-11T12:36:48.178Z,38.92
2018-08-11T12:39:17.021Z,39.74
2018-08-11T12:41:45.445Z,40.78
2018-08-11T12:44:13.941Z,42.20
2018-08-11T12:46:42.477Z,42.03
2018-08-11T12:49:10.917Z,39.17
2018-08-11T12:51:39.305Z,40.79
2018-08-11T12:54:07.816Z,41.32
2018-08-11T12:56:36.261Z,41.86
2018-08-11T12:59:04.802Z,41.22
2018-08-11T13:01:33.374Z,38.72
2018-08-11T13:04:01.865Z,35.00
2018-08-11T13:06:30.263Z,34.21
2018-08-11T13:08:58.785Z,36.47
2018-08-11T13:11:27.238Z,40.30
2018-08-11T13:13:55.793Z,40.88
2018-08-11T13:16:24.202Z,41.84
2018-08-11T13:18:53.100Z,42.04
2018-08-11T13:21:21.576Z,41.66
2018-08-11T13:23:50.210Z,42.26
2018-08-11T13:26:18.977Z,43.31
2018-08-11T13:28:47.714Z,42.51
2018-08-11T13:31:16.299Z,42.46
2018-08-11T13:33:44.897Z,43.25
2018-08-11T13:36:13.457Z,43.95
2018-08-11T13:38:42.034Z,43.00
2018-08-11T13:41:10.554Z,43.66
2018-08-11T13:43:39.060Z,41.98
2018-08-11T13:46:07.553Z,41.59
2018-08-11T13:48:35.985Z,42.53
2018-08-11T13:51:04.530Z,44.04
2018-08-11T13:53:33.362Z,42.87
2018-08-11T13:56:01.876Z,42.53
2018-08-11T13:58:30.453Z,42.69
2018-08-11T14:00:59.017Z,43.49
2018-08-11T14:03:27.489Z,44.47
2018-08-11T14:06:02.171Z,43.76
2018-08-11T14:08:37.429Z,44.18
2018-08-11T14:11:06.877Z,44.48
2018-08-11T14:13:35.415Z,45.15
2018-08-11T14:16:03.925Z,45.62
2018-08-11T14:18:32.801Z,45.52
2018-08-11T14:21:01.230Z,45.45
2018-08-11T14:23:30.051Z,44.39
2018-08-11T14:25:58.703Z,44.21
2018-08-11T14:28:27.237Z,43.18
2018-08-11T14:31:05.697Z,43.40
2018-08-11T14:33:34.458Z,43.09
2018-08-11T14:36:10.379Z,42.92
2018-08-11T14:38:48.556Z,43.72
2018-08-11T14:41:18.253Z,44.60
2018-08-11T14:43:46.721Z,43.90
2018-08-11T14:46:15.279Z,43.51
2018-08-11T14:48:44.949Z,43.20
2018-08-11T14:51:14.058Z,42.64
2018-08-11T14:53:49.921Z,42.66
2018-08-11T14:56:19.136Z,43.39
2018-08-11T14:58:58.323Z,44.29
2018-08-11T15:01:27.094Z,44.44
2018-08-11T15:03:55.559Z,42.72
2018-08-11T15:06:26.069Z,43.60
2018-08-11T15:08:57.657Z,43.83
2018-08-11T15:11:26.090Z,44.25
2018-08-11T15:13:54.541Z,44.40
2018-08-11T15:16:23.066Z,45.12
2018-08-11T15:18:51.485Z,44.17
2018-08-11T15:21:20.085Z,43.54
2018-08-11T15:23:48.549Z,45.76
2018-08-11T15:26:17.237Z,45.97
2018-08-11T15:28:45.629Z,46.05
2018-08-11T15:31:14.157Z,44.21
2018-08-11T15:33:42.761Z,44.23
2018-08-11T15:36:11.205Z,42.88
2018-08-11T15:38:39.701Z,44.74
2018-08-11T15:41:08.204Z,45.25
2018-08-11T15:43:36.718Z,44.18
2018-08-11T15:46:05.272Z,43.90
2018-08-11T15:48:33.765Z,44.17
2018-08-11T15:51:02.276Z,44.37
2018-08-11T15:53:30.746Z,44.00
2018-08-11T15:55:59.166Z,43.97
2018-08-11T15:58:27.645Z,44.84
2018-08-11T16:00:56.112Z,43.94
2018-08-11T16:03:24.635Z,44.21
2018-08-11T16:05:53.164Z,42.95
2018-08-11T16:08:21.582Z,44.28
2018-08-11T16:10:50.053Z,44.64
2018-08-11T16:13:19.257Z,44.64
2018-08-11T16:15:47.760Z,43.79
2018-08-11T16:18:16.635Z,43.05
2018-08-11T16:20:45.064Z,44.34
2018-08-11T16:23:13.705Z,45.28
2018-08-11T16:25:42.216Z,45.46
2018-08-11T16:28:10.894Z,45.75
2018-08-11T16:30:39.409Z,43.96
2018-08-11T16:33:08.198Z,43.79
2018-08-11T16:35:36.665Z,41.18
2018-08-11T16:38:05.741Z,39.31
2018-08-11T16:40:34.257Z,40.47
2018-08-11T16:43:02.917Z,40.19
2018-08-11T16:45:31.409Z,41.21
2018-08-11T16:48:00.147Z,43.03
2018-08-11T16:50:28.604Z,43.57
2018-08-11T16:52:57.020Z,43.73
2018-08-11T16:55:25.661Z,43.88
2018-08-11T16:57:54.149Z,43.77
2018-08-11T17:00:22.846Z,42.59
2018-08-11T17:02:51.312Z,41.82
2018-08-11T17:05:20.002Z,41.87
2018-08-11T17:07:48.471Z,40.13
2018-08-11T17:10:17.477Z,40.79
2018-08-11T17:12:46.141Z,40.37
2018-08-11T17:15:14.695Z,38.64
2018-08-11T17:17:43.401Z,35.27
2018-08-11T17:20:12.143Z,33.70
2018-08-11T17:22:40.622Z,32.04
2018-08-11T17:25:09.273Z,32.04
2018-08-11T17:27:37.810Z,32.40
2018-08-11T17:30:06.814Z,31.72
2018-08-11T17:32:35.317Z,31.30
2018-08-11T17:35:03.832Z,30.64
2018-08-11T17:37:32.488Z,29.81
2018-08-11T17:40:01.022Z,29.32
2018-08-11T17:42:29.661Z,28.89
2018-08-11T17:44:58.185Z,28.75
2018-08-11T17:47:26.668Z,28.84
2018-08-11T17:49:55.197Z,30.20
2018-08-11T17:52:23.866Z,32.88
2018-08-11T17:54:52.317Z,34.86
2018-08-11T17:57:21.013Z,35.27
2018-08-11T17:59:49.589Z,33.06
2018-08-11T18:02:18.714Z,31.49
2018-08-11T18:04:47.169Z,30.06
2018-08-11T18:07:15.677Z,28.93
2018-08-11T18:09:44.205Z,28.16
2018-08-11T18:12:12.827Z,27.61
2018-08-11T18:14:41.373Z,27.19
2018-08-11T18:17:09.834Z,26.75
2018-08-11T18:19:38.842Z,26.42
2018-08-11T18:22:07.340Z,26.18
2018-08-11T18:24:35.893Z,25.88
2018-08-11T18:27:04.462Z,25.68
2018-08-11T18:29:33.281Z,25.47
2018-08-11T18:32:01.767Z,25.30
2018-08-11T18:34:30.359Z,25.05
2018-08-11T18:36:58.840Z,24.88
2018-08-11T18:39:27.402Z,24.73
2018-08-11T18:41:55.881Z,24.55
2018-08-11T18:44:24.403Z,24.38
2018-08-11T18:46:53.045Z,24.17
2018-08-11T18:49:21.745Z,23.93
2018-08-11T18:51:51.014Z,23.85
2018-08-11T18:54:19.861Z,23.67
2018-08-11T18:56:48.434Z,23.48
2018-08-11T18:59:17.349Z,23.36
2018-08-11T19:01:46.110Z,23.22
2018-08-11T19:04:14.609Z,23.17
2018-08-11T19:06:43.237Z,23.05
2018-08-11T19:09:13.054Z,22.90
2018-08-11T19:11:42.066Z,22.83
2018-08-11T19:14:10.565Z,22.70
2018-08-11T19:16:39.429Z,22.57
2018-08-11T19:19:08.129Z,22.49
2018-08-11T19:21:36.721Z,22.43
2018-08-11T19:24:05.163Z,22.44
2018-08-11T19:26:33.746Z,22.39
2018-08-11T19:29:02.314Z,22.24
2018-08-11T19:31:30.769Z,22.04
2018-08-11T19:33:59.487Z,21.90
2018-08-11T19:36:27.974Z,21.80
2018-08-11T19:38:56.524Z,21.65
2018-08-11T19:41:25.058Z,21.53
2018-08-11T19:43:53.673Z,21.37
2018-08-11T19:46:22.246Z,21.23
2018-08-11T19:48:50.983Z,21.14
2018-08-11T19:51:20.087Z,21.10
2018-08-11T19:53:48.511Z,21.07
2018-08-11T19:56:17.377Z,21.01
2018-08-11T19:58:45.978Z,20.91
2018-08-11T20:01:14.628Z,20.81
2018-08-11T20:03:43.066Z,20.69
2018-08-11T20:06:11.673Z,20.60
2018-08-11T20:08:40.154Z,20.46
2018-08-11T20:11:08.798Z,20.40
2018-08-11T20:13:37.333Z,20.34
2018-08-11T20:16:06.060Z,20.29
2018-08-11T20:18:34.874Z,20.18
2018-08-11T20:21:03.616Z,20.06
2018-08-11T20:23:32.115Z,20.06
2018-08-11T20:26:00.758Z,20.05
2018-08-11T20:28:29.417Z,20.15
2018-08-11T20:30:57.921Z,20.04
2018-08-11T20:33:26.485Z,20.05
2018-08-11T20:35:54.945Z,19.91
2018-08-11T20:38:23.569Z,19.79
2018-08-11T20:40:52.070Z,19.64
2018-08-11T20:43:20.666Z,19.50
2018-08-11T20:45:49.207Z,19.44
2018-08-11T20:48:18.073Z,19.34
2018-08-11T20:50:46.749Z,19.25
2018-08-11T20:53:15.294Z,19.18
2018-08-11T20:55:44.062Z,19.22
2018-08-11T20:58:12.518Z,19.16
2018-08-11T21:00:41.150Z,19.13
2018-08-11T21:03:11.645Z,19.09
2018-08-11T21:05:40.269Z,19.01
2018-08-11T21:08:08.759Z,18.90
2018-08-11T21:10:37.322Z,18.89
2018-08-11T21:13:05.973Z,18.94
2018-08-11T21:15:34.490Z,18.97
2018-08-11T21:18:02.946Z,19.02
2018-08-11T21:20:31.476Z,18.94
2018-08-11T21:23:00.046Z,18.82
2018-08-11T21:25:28.541Z,18.69
2018-08-11T21:27:57.054Z,18.56
2018-08-11T21:30:25.577Z,18.48
2018-08-11T21:32:54.146Z,18.43
2018-08-11T21:35:22.643Z,18.38
2018-08-11T21:37:51.301Z,18.31
2018-08-11T21:40:19.814Z,18.19
2018-08-11T21:42:48.377Z,18.05
2018-08-11T21:45:17.489Z,18.03
2018-08-11T21:47:46.103Z,18.04
2018-08-11T21:50:14.609Z,18.09
2018-08-11T21:52:43.387Z,18.08
2018-08-11T21:55:12.254Z,18.04
2018-08-11T21:57:40.697Z,18.01
2018-08-11T22:00:46.226Z,17.97
2018-08-11T22:03:14.797Z,17.92
2018-08-11T22:05:43.566Z,17.90
2018-08-11T22:08:12.003Z,17.83
2018-08-11T22:10:40.726Z,17.78
2018-08-11T22:13:09.434Z,17.69
2018-08-11T22:15:38.133Z,17.57
2018-08-11T22:18:06.720Z,17.51
2018-08-11T22:20:35.223Z,17.46
2018-08-11T22:23:03.910Z,17.41
2018-08-11T22:25:32.425Z,17.33
2018-08-11T22:28:01.213Z,17.27
2018-08-11T22:30:29.686Z,17.22
2018-08-11T22:32:58.366Z,17.24
2018-08-11T22:35:26.886Z,17.34
2018-08-11T22:37:55.537Z,17.37
2018-08-11T22:40:24.001Z,17.30
2018-08-11T22:42:52.550Z,17.21
2018-08-11T22:45:21.587Z,17.09
2018-08-11T22:47:50.066Z,16.95
2018-08-11T22:50:18.967Z,16.88
2018-08-11T22:52:47.460Z,16.81
2018-08-11T22:55:16.285Z,16.72
2018-08-11T22:57:44.899Z,16.67
2018-08-11T23:00:17.110Z,16.62
2018-08-11T23:02:45.823Z,16.61
2018-08-11T23:05:15.176Z,16.58
2018-08-11T23:07:43.649Z,16.53
2018-08-11T23:10:13.741Z,16.54
2018-08-11T23:12:43.323Z,16.57
2018-08-11T23:15:13.553Z,16.56
2018-08-11T23:17:43.773Z,16.45
2018-08-11T23:20:12.234Z,16.38
2018-08-11T23:22:40.718Z,16.31
2018-08-11T23:25:10.263Z,16.25
2018-08-11T23:27:38.879Z,16.22
2018-08-11T23:30:10.302Z,16.30
2018-08-11T23:32:39.784Z,16.35
2018-08-11T23:35:08.347Z,16.27
2018-08-11T23:37:36.805Z,16.20
2018-08-11T23:40:06.390Z,16.17
2018-08-11T23:42:35.273Z,16.13
2018-08-11T23:45:03.969Z,16.10
2018-08-11T23:47:32.445Z,15.99
2018-08-11T23:50:01.086Z,15.93
2018-08-11T23:52:29.533Z,15.84
2018-08-11T23:54:58.073Z,15.78
2018-08-11T23:57:26.617Z,15.72
2018-08-11T23:59:55.145Z,15.70
